createdAt,value
2023-05-13T00:01:40.576Z,5.65
2023-05-13T00:04:10.571Z,5.75
2023-05-13T00:06:43.607Z,5.47
2023-05-13T00:09:13.583Z,5.28
2023-05-13T00:11:46.580Z,5.82
2023-05-13T00:14:16.235Z,5.60
2023-05-13T00:16:47.665Z,5.30
2023-05-13T00:19:17.242Z,5.07
2023-05-13T00:21:49.364Z,5.88
2023-05-13T00:24:19.575Z,5.18
2023-05-13T00:26:50.583Z,5.75
2023-05-13T00:29:20.152Z,5.47
2023-05-13T00:31:49.799Z,5.30
2023-05-13T00:34:19.748Z,5.65
2023-05-13T00:36:55.573Z,6.13
2023-05-13T00:39:25.103Z,5.72
2023-05-13T00:41:55.531Z,5.32
2023-05-13T00:44:25.577Z,5.68
2023-05-13T00:46:55.154Z,5.63
2023-05-13T00:49:26.584Z,5.65
2023-05-13T00:51:59.681Z,5.05
2023-05-13T00:54:32.551Z,6.15
2023-05-13T00:57:02.110Z,5.22
2023-05-13T00:59:33.585Z,5.65
2023-05-13T01:02:14.595Z,5.47
2023-05-13T01:04:47.722Z,5.80
2023-05-13T01:07:36.555Z,5.88
2023-05-13T01:10:11.521Z,5.85
2023-05-13T01:12:46.462Z,6.10
2023-05-13T01:15:18.587Z,5.80
2023-05-13T01:17:56.537Z,5.60
2023-05-13T01:20:26.871Z,6.13
2023-05-13T01:22:59.557Z,5.30
2023-05-13T01:25:29.125Z,5.43
2023-05-13T01:27:58.831Z,5.82
2023-05-13T01:30:28.773Z,5.90
2023-05-13T01:32:58.614Z,5.78
2023-05-13T01:35:31.353Z,5.18
2023-05-13T01:38:05.409Z,6.40
2023-05-13T01:40:35.879Z,5.72
2023-05-13T01:43:05.581Z,5.75
2023-05-13T01:45:35.517Z,5.55
2023-05-13T01:48:05.157Z,5.45
2023-05-13T01:50:34.968Z,5.85
2023-05-13T01:53:07.198Z,6.28
2023-05-13T01:55:37.562Z,6.60
2023-05-13T01:58:07.105Z,6.50
2023-05-13T02:00:36.608Z,6.68
2023-05-13T02:03:06.593Z,7.47
2023-05-13T02:05:36.544Z,6.47
2023-05-13T02:08:09.753Z,6.70
2023-05-13T02:10:39.555Z,6.60
2023-05-13T02:13:09.098Z,6.80
2023-05-13T02:15:40.076Z,6.35
2023-05-13T02:18:09.631Z,6.70
2023-05-13T02:20:39.154Z,6.85
2023-05-13T02:23:11.393Z,6.45
2023-05-13T02:25:41.570Z,6.85
2023-05-13T02:28:11.114Z,6.93
2023-05-13T02:30:42.536Z,7.45
2023-05-13T02:33:12.171Z,6.63
2023-05-13T02:35:41.699Z,7.03
2023-05-13T02:38:14.851Z,6.90
2023-05-13T02:43:19.546Z,6.53
2023-05-13T02:45:49.367Z,7.18
2023-05-13T02:48:19.532Z,7.10
2023-05-13T02:50:49.029Z,7.20
2023-05-13T02:53:21.539Z,6.88
2023-05-13T02:55:51.054Z,7.05
2023-05-13T02:58:24.580Z,6.75
2023-05-13T03:00:54.137Z,6.63
2023-05-13T03:03:24.752Z,7.30
2023-05-13T03:05:54.506Z,7.38
2023-05-13T03:08:26.711Z,7.32
2023-05-13T03:10:56.361Z,8.23
2023-05-13T03:13:25.959Z,7.07
2023-05-13T03:15:57.578Z,7.40
2023-05-13T03:18:28.962Z,7.55
2023-05-13T03:20:59.574Z,7.28
2023-05-13T03:23:31.726Z,7.40
2023-05-13T03:28:38.559Z,7.90
2023-05-13T03:31:08.573Z,7.68
2023-05-13T03:33:38.205Z,6.88
2023-05-13T03:36:08.443Z,7.50
2023-05-13T03:38:40.858Z,7.28
2023-05-13T03:41:10.426Z,7.25
2023-05-13T03:43:40.009Z,6.15
2023-05-13T03:46:09.545Z,7.10
2023-05-13T03:48:39.068Z,6.43
2023-05-13T03:51:08.822Z,5.95
2023-05-13T03:53:41.010Z,6.88
2023-05-13T03:56:10.642Z,6.32
2023-05-13T03:58:40.290Z,5.95
2023-05-13T04:01:10.000Z,6.40
2023-05-13T04:03:39.539Z,5.78
2023-05-13T04:06:09.481Z,6.28
2023-05-13T04:08:42.024Z,6.20
2023-05-13T04:11:11.587Z,5.80
2023-05-13T04:13:41.230Z,6.30
2023-05-13T04:16:10.924Z,5.70
2023-05-13T04:18:40.509Z,5.68
2023-05-13T04:21:11.637Z,5.85
2023-05-13T04:23:44.532Z,6.35
2023-05-13T04:26:14.088Z,6.32
2023-05-13T04:28:43.600Z,6.05
2023-05-13T04:31:13.164Z,6.00
2023-05-13T04:33:42.758Z,6.57
2023-05-13T04:36:14.868Z,5.68
2023-05-13T04:38:47.283Z,6.20
2023-05-13T04:41:16.808Z,5.80
2023-05-13T04:43:46.350Z,5.65
2023-05-13T04:46:15.942Z,6.18
2023-05-13T04:48:48.360Z,5.85
2023-05-13T04:51:18.666Z,5.90
2023-05-13T04:53:51.182Z,5.55
2023-05-13T04:56:21.954Z,5.40
2023-05-13T04:58:51.847Z,5.88
2023-05-13T05:01:21.405Z,5.93
2023-05-13T05:03:51.015Z,5.60
2023-05-13T05:06:21.996Z,5.53
2023-05-13T05:08:54.088Z,5.45
2023-05-13T05:11:23.642Z,7.32
2023-05-13T05:13:53.179Z,5.72
2023-05-13T05:16:22.683Z,5.78
2023-05-13T05:18:52.303Z,6.18
2023-05-13T05:21:21.930Z,5.07
2023-05-13T05:23:54.062Z,5.70
2023-05-13T05:26:23.679Z,5.20
2023-05-13T05:28:53.219Z,5.38
2023-05-13T05:31:22.812Z,5.18
2023-05-13T05:33:52.581Z,5.88
2023-05-13T05:36:22.247Z,6.00
2023-05-13T05:38:54.363Z,5.25
2023-05-13T05:41:25.493Z,5.10
2023-05-13T05:43:55.016Z,4.55
2023-05-13T05:46:25.049Z,5.35
2023-05-13T05:48:54.794Z,5.80
2023-05-13T05:51:24.344Z,5.72
2023-05-13T05:53:56.465Z,5.50
2023-05-13T05:56:25.952Z,4.88
2023-05-13T05:58:56.527Z,4.80
2023-05-13T06:01:26.071Z,4.50
2023-05-13T06:03:55.634Z,5.68
2023-05-13T06:06:25.245Z,5.63
2023-05-13T06:08:57.449Z,4.75
2023-05-13T06:11:27.011Z,5.15
2023-05-13T06:13:57.691Z,5.10
2023-05-13T06:16:27.551Z,6.03
2023-05-13T06:18:57.276Z,5.25
2023-05-13T06:21:26.908Z,5.07
2023-05-13T06:23:59.523Z,6.18
2023-05-13T06:26:29.888Z,5.30
2023-05-13T06:28:59.450Z,5.25
2023-05-13T06:31:29.245Z,5.28
2023-05-13T06:33:58.811Z,4.10
2023-05-13T06:36:29.286Z,5.20
2023-05-13T06:39:01.512Z,5.80
2023-05-13T06:41:31.334Z,4.50
2023-05-13T06:44:00.926Z,4.93
2023-05-13T06:46:30.526Z,5.53
2023-05-13T06:49:00.354Z,5.20
2023-05-13T06:51:30.830Z,5.60
2023-05-13T06:54:03.071Z,5.38
2023-05-13T06:56:33.118Z,5.05
2023-05-13T06:59:02.673Z,5.40
2023-05-13T07:01:32.386Z,4.45
2023-05-13T07:04:02.153Z,5.13
2023-05-13T07:06:32.506Z,5.72
2023-05-13T07:09:08.325Z,5.70
2023-05-13T07:11:38.437Z,5.00
2023-05-13T07:14:07.967Z,5.68
2023-05-13T07:16:37.464Z,6.18
2023-05-13T07:19:06.987Z,4.88
2023-05-13T07:21:36.713Z,5.10
2023-05-13T07:24:09.639Z,5.30
2023-05-13T07:26:39.900Z,6.38
2023-05-13T07:29:09.439Z,5.50
2023-05-13T07:31:38.846Z,5.70
2023-05-13T07:34:08.384Z,6.15
2023-05-13T07:36:37.906Z,5.28
2023-05-13T07:39:10.515Z,5.65
2023-05-13T07:41:40.094Z,5.25
2023-05-13T07:44:13.241Z,5.55
2023-05-13T07:46:42.815Z,6.35
2023-05-13T07:49:12.438Z,5.97
2023-05-13T07:51:42.137Z,6.20
2023-05-13T07:54:14.703Z,6.20
2023-05-13T07:56:44.479Z,6.15
2023-05-13T07:59:14.180Z,5.53
2023-05-13T08:01:45.503Z,5.18
2023-05-13T08:04:15.460Z,6.95
2023-05-13T08:06:45.329Z,5.68
2023-05-13T08:09:18.243Z,5.28
2023-05-13T08:11:48.274Z,5.95
2023-05-13T08:14:17.842Z,5.88
2023-05-13T08:16:47.455Z,4.95
2023-05-13T08:19:18.199Z,5.55
2023-05-13T08:21:47.806Z,5.30
2023-05-13T08:24:20.488Z,5.35
2023-05-13T08:26:50.520Z,6.03
2023-05-13T08:29:20.054Z,5.35
2023-05-13T08:31:50.224Z,5.53
2023-05-13T08:34:19.802Z,5.65
2023-05-13T08:36:49.344Z,5.60
2023-05-13T08:39:22.012Z,5.63
2023-05-13T08:41:54.681Z,5.22
2023-05-13T08:44:29.241Z,5.45
2023-05-13T08:47:07.383Z,4.07
2023-05-13T08:49:37.767Z,5.40
2023-05-13T08:52:09.053Z,5.50
2023-05-13T08:54:41.689Z,5.50
2023-05-13T08:57:11.256Z,5.80
2023-05-13T08:59:40.808Z,5.07
2023-05-13T09:02:12.472Z,5.18
2023-05-13T09:04:44.107Z,5.13
2023-05-13T09:07:14.505Z,5.47
2023-05-13T09:09:47.549Z,5.47
2023-05-13T09:12:50.127Z,4.63
2023-05-13T09:15:21.245Z,5.88
2023-05-13T09:17:52.741Z,5.32
2023-05-13T09:20:25.538Z,5.57
2023-05-13T09:22:56.929Z,4.85
2023-05-13T09:25:29.685Z,4.97
2023-05-13T09:28:01.791Z,4.90
2023-05-13T09:30:32.938Z,5.13
2023-05-13T09:33:13.862Z,5.20
2023-05-13T09:35:45.053Z,5.10
2023-05-13T09:38:18.685Z,4.70
2023-05-13T09:40:58.681Z,4.10
2023-05-13T09:43:29.706Z,4.38
2023-05-13T09:46:00.453Z,4.63
2023-05-13T09:48:32.366Z,4.75
2023-05-13T09:51:02.325Z,4.57
2023-05-13T09:53:32.090Z,4.28
2023-05-13T09:56:04.407Z,3.58
2023-05-13T09:58:34.831Z,4.57
2023-05-13T10:01:05.639Z,4.70
2023-05-13T10:03:35.488Z,4.75
2023-05-13T10:06:07.332Z,4.55
2023-05-13T10:08:38.084Z,4.22
2023-05-13T10:11:11.581Z,4.50
2023-05-13T10:13:42.913Z,4.25
2023-05-13T10:16:12.800Z,4.03
2023-05-13T10:18:42.857Z,3.85
2023-05-13T10:21:12.409Z,4.65
2023-05-13T10:23:42.435Z,4.55
2023-05-13T10:26:15.470Z,4.00
2023-05-13T10:28:46.383Z,3.67
2023-05-13T10:31:15.954Z,4.90
2023-05-13T10:33:46.006Z,4.55
2023-05-13T10:36:37.454Z,4.03
2023-05-13T10:39:27.840Z,4.28
2023-05-13T10:42:33.763Z,4.10
2023-05-13T10:45:04.386Z,4.18
2023-05-13T10:47:35.011Z,3.63
2023-05-13T10:50:08.989Z,4.03
2023-05-13T10:52:45.952Z,3.30
2023-05-13T10:55:20.515Z,3.65
2023-05-13T10:58:15.159Z,3.40
2023-05-13T11:00:46.238Z,3.55
2023-05-13T11:03:18.288Z,2.53
2023-05-13T11:05:49.951Z,3.90
2023-05-13T11:08:40.835Z,3.85
2023-05-13T11:11:21.316Z,3.30
2023-05-13T11:13:56.008Z,3.25
2023-05-13T11:16:25.953Z,3.95
2023-05-13T11:18:55.997Z,4.53
2023-05-13T11:21:35.481Z,3.75
2023-05-13T11:24:07.179Z,4.50
2023-05-13T11:26:49.872Z,3.97
2023-05-13T11:29:31.122Z,4.35
2023-05-13T11:32:01.721Z,3.78
2023-05-13T11:34:31.594Z,4.30
2023-05-13T11:37:10.622Z,3.55
2023-05-13T11:39:43.017Z,4.43
2023-05-13T11:42:13.681Z,3.15
2023-05-13T11:44:52.144Z,4.22
2023-05-13T11:47:28.947Z,3.97
2023-05-13T11:49:59.333Z,3.28
2023-05-13T11:52:29.581Z,3.83
2023-05-13T11:55:00.468Z,3.30
2023-05-13T11:57:32.937Z,3.22
2023-05-13T12:00:07.762Z,2.63
2023-05-13T12:02:40.695Z,3.40
2023-05-13T12:05:12.486Z,2.60
2023-05-13T12:07:42.436Z,3.47
2023-05-13T12:10:12.463Z,3.25
2023-05-13T12:12:43.540Z,3.50
2023-05-13T12:15:18.545Z,3.30
2023-05-13T12:17:49.523Z,2.80
2023-05-13T12:20:20.330Z,3.28
2023-05-13T12:22:57.021Z,3.53
2023-05-13T12:25:40.347Z,3.28
2023-05-13T12:28:12.032Z,3.05
2023-05-13T12:30:49.488Z,3.50
2023-05-13T12:33:21.110Z,3.20
2023-05-13T12:35:52.340Z,3.50
2023-05-13T12:38:24.122Z,2.55
2023-05-13T12:40:55.361Z,3.83
2023-05-13T12:43:25.775Z,3.10
2023-05-13T12:45:58.480Z,3.65
2023-05-13T12:48:28.711Z,3.45
2023-05-13T12:51:01.286Z,3.28
2023-05-13T12:53:31.747Z,3.35
2023-05-13T12:56:01.473Z,3.80
2023-05-13T12:58:31.218Z,3.33
2023-05-13T13:01:03.419Z,2.90
2023-05-13T13:03:33.095Z,2.88
2023-05-13T13:06:02.727Z,2.97
2023-05-13T13:08:32.473Z,2.95
2023-05-13T13:11:02.139Z,3.40
2023-05-13T13:13:31.729Z,3.40
2023-05-13T13:16:04.198Z,3.40
2023-05-13T13:18:33.785Z,3.70
2023-05-13T13:21:03.329Z,3.85
2023-05-13T13:23:32.837Z,3.80
2023-05-13T13:26:02.478Z,3.22
2023-05-13T13:28:32.112Z,4.57
2023-05-13T13:31:04.270Z,2.97
2023-05-13T13:33:33.798Z,3.80
2023-05-13T13:36:03.369Z,3.63
2023-05-13T13:38:32.887Z,4.25
2023-05-13T13:41:02.449Z,3.88
2023-05-13T13:43:31.947Z,3.13
2023-05-13T13:46:04.134Z,4.32
2023-05-13T13:48:33.673Z,4.68
2023-05-13T13:51:03.178Z,3.83
2023-05-13T13:53:32.692Z,4.32
2023-05-13T17:16:16.394Z,4.40
2023-05-13T17:18:45.972Z,4.35
2023-05-13T17:21:15.589Z,4.72
2023-05-13T17:23:45.262Z,5.05
2023-05-13T17:26:15.464Z,5.90
2023-05-13T17:28:45.004Z,5.55
2023-05-13T17:31:17.123Z,6.05
2023-05-13T17:33:46.795Z,5.25
2023-05-13T17:36:16.510Z,5.10
2023-05-13T17:38:46.095Z,5.20
2023-05-13T17:41:15.656Z,4.93
2023-05-13T17:43:45.283Z,5.07
2023-05-13T17:46:17.396Z,4.93
2023-05-13T17:48:47.028Z,5.13
2023-05-13T17:51:16.596Z,4.82
2023-05-13T17:53:46.095Z,5.07
2023-05-13T17:56:15.631Z,4.90
2023-05-13T17:58:45.219Z,5.90
2023-05-13T18:01:17.376Z,6.40
2023-05-13T18:03:46.903Z,6.15
2023-05-13T18:06:16.595Z,6.25
2023-05-13T18:08:46.357Z,5.97
2023-05-13T18:11:15.915Z,5.35
2023-05-13T18:13:45.511Z,5.47
2023-05-13T18:18:56.688Z,5.15
2023-05-13T18:24:10.471Z,5.25
2023-05-13T18:26:40.063Z,5.30
2023-05-13T18:29:09.697Z,5.15
2023-05-13T18:31:41.910Z,5.07
2023-05-13T18:34:11.575Z,16.77
2023-05-13T18:36:41.161Z,12.00
2023-05-13T18:39:11.316Z,8.02
2023-05-13T18:41:40.885Z,8.85
2023-05-13T18:44:10.430Z,7.50
2023-05-13T18:46:44.581Z,7.43
2023-05-13T18:49:14.176Z,8.48
2023-05-13T18:51:45.516Z,7.53
2023-05-13T18:54:15.132Z,6.70
2023-05-13T18:56:44.781Z,6.10
2023-05-13T18:59:16.449Z,8.68
2023-05-13T19:01:48.825Z,8.77
2023-05-13T19:04:18.481Z,7.45
2023-05-13T19:06:49.456Z,8.18
2023-05-13T19:09:19.098Z,5.82
2023-05-13T19:11:48.641Z,6.82
2023-05-13T19:14:18.492Z,6.30
2023-05-13T19:16:50.922Z,6.20
2023-05-13T19:19:20.525Z,7.25
2023-05-13T19:21:50.065Z,6.95
2023-05-13T19:24:19.617Z,6.78
2023-05-13T19:26:49.153Z,7.45
2023-05-13T19:29:18.783Z,6.85
2023-05-13T19:31:50.884Z,7.70
2023-05-13T19:34:20.492Z,7.85
2023-05-13T19:36:50.052Z,8.25
2023-05-13T19:39:19.616Z,7.15
2023-05-13T19:41:49.949Z,7.18
2023-05-13T19:44:19.625Z,7.72
2023-05-13T19:46:51.877Z,7.30
2023-05-13T19:49:21.477Z,8.00
2023-05-13T19:51:51.040Z,7.80
2023-05-13T19:54:20.744Z,9.73
2023-05-13T19:56:50.278Z,8.52
2023-05-13T19:59:20.465Z,9.65
2023-05-13T20:01:52.645Z,9.60
2023-05-13T20:04:22.784Z,9.65
2023-05-13T20:06:52.366Z,10.00
2023-05-13T20:09:21.903Z,9.98
2023-05-13T20:11:54.239Z,9.10
2023-05-13T20:14:27.804Z,8.35
2023-05-13T20:17:00.071Z,9.43
2023-05-13T20:19:29.621Z,10.27
2023-05-13T20:21:59.124Z,10.02
2023-05-13T20:24:28.747Z,10.20
2023-05-13T20:26:58.581Z,10.05
2023-05-13T20:29:28.204Z,10.13
2023-05-13T20:32:04.570Z,10.00
2023-05-13T20:34:34.444Z,9.45
2023-05-13T20:37:04.245Z,10.65
2023-05-13T20:39:33.867Z,9.63
2023-05-13T20:42:03.444Z,9.75
2023-05-13T20:44:33.047Z,10.13
2023-05-13T20:47:05.285Z,10.07
2023-05-13T20:49:34.841Z,10.10
2023-05-13T20:52:08.481Z,10.45
2023-05-13T20:54:38.937Z,10.63
2023-05-13T20:57:08.786Z,10.43
2023-05-13T20:59:38.285Z,10.15
2023-05-13T21:02:10.617Z,10.77
2023-05-13T21:04:40.143Z,10.45
2023-05-13T21:07:09.701Z,10.65
2023-05-13T21:09:39.248Z,11.23
2023-05-13T21:12:09.470Z,11.27
2023-05-13T21:14:39.001Z,10.90
2023-05-13T21:17:11.138Z,10.15
2023-05-13T21:19:40.715Z,10.60
2023-05-13T21:22:10.260Z,11.07
2023-05-13T21:24:39.852Z,11.05
2023-05-13T21:27:09.390Z,11.30
2023-05-13T21:29:38.928Z,9.25
2023-05-13T21:32:12.120Z,9.50
2023-05-13T21:34:41.630Z,9.73
2023-05-13T21:37:11.166Z,10.20
2023-05-13T21:39:41.391Z,9.10
2023-05-13T21:42:10.996Z,10.10
2023-05-13T21:44:41.121Z,9.60
2023-05-13T21:47:13.372Z,10.23
2023-05-13T21:49:42.998Z,10.27
2023-05-13T21:52:12.587Z,10.20
2023-05-13T21:54:42.522Z,10.25
2023-05-13T21:57:12.068Z,11.32
2023-05-13T21:59:41.742Z,9.82
2023-05-13T22:02:13.924Z,9.55
2023-05-13T22:04:43.488Z,9.80
2023-05-13T22:07:13.045Z,10.55
2023-05-13T22:09:42.577Z,9.73
2023-05-13T22:12:12.241Z,9.93
2023-05-13T22:14:41.754Z,10.43
2023-05-13T22:17:13.969Z,11.00
2023-05-13T22:19:43.712Z,10.90
2023-05-13T22:22:13.313Z,12.32
2023-05-13T22:24:42.862Z,10.90
2023-05-13T22:27:12.477Z,11.23
2023-05-13T22:29:42.011Z,11.05
2023-05-13T22:32:14.227Z,10.55
2023-05-13T22:34:43.806Z,10.85
2023-05-13T22:37:13.336Z,10.95
2023-05-13T22:39:42.837Z,11.40
2023-05-13T22:42:12.389Z,11.60
2023-05-13T22:44:41.972Z,10.90
2023-05-13T22:47:14.096Z,11.07
2023-05-13T22:49:43.662Z,11.02
2023-05-13T22:52:13.176Z,11.40
2023-05-13T22:54:42.778Z,11.07
2023-05-13T22:57:12.316Z,11.02
2023-05-13T22:59:41.924Z,11.10
2023-05-13T23:02:14.393Z,11.00
2023-05-13T23:04:43.999Z,11.43
2023-05-13T23:07:13.562Z,11.30
2023-05-13T23:09:43.112Z,11.60
2023-05-13T23:12:12.805Z,11.60
2023-05-13T23:14:42.692Z,10.93
2023-05-13T23:17:14.774Z,10.85
2023-05-13T23:19:44.298Z,11.95
2023-05-13T23:22:13.890Z,12.18
2023-05-13T23:24:43.449Z,12.65
2023-05-13T23:27:12.948Z,12.82
2023-05-13T23:29:42.439Z,11.40
2023-05-13T23:32:14.610Z,11.63
2023-05-13T23:34:44.145Z,11.95
2023-05-13T23:37:15.753Z,10.95
2023-05-13T23:39:45.441Z,11.35
2023-05-13T23:42:14.926Z,11.88
2023-05-13T23:44:44.482Z,11.13
2023-05-13T23:47:16.887Z,10.70
2023-05-13T23:49:46.520Z,10.60
2023-05-13T23:52:16.100Z,11.13
2023-05-13T23:54:45.631Z,11.32
2023-05-13T23:57:15.181Z,10.35
2023-05-13T23:59:44.774Z,10.98
